Rich Hill, Missouri
Current Conditions -  °F | °C
As of 9:55 PM on Wednesday 22 Oct 2014 (Local Time) from KGLY Reporting Station
Clear Clear  
Wind Chill: 57°   Ceiling: Unl
Heat Index: 57°   Visibility: 10mi
Dew Point: 48°   Wind: 5mph
Humidity: 72%   Direction: 120°ESE
Pressure: 30.15"   Gusts: NA
Location:  38.1°N, 94.36°W
Report Text: KGLY 230255Z AUTO 12004KT 10SM CLR 14/09 A3015 RMK AO2
Loading
Personal Weather Stations






























Interactive Weather Map
Tropical Storm Tracking
New forecast layout! Learn more

10-Day Weather Forecast

Advertisements
Track Severe Weather on mobile